createdAt,value
2024-02-28T00:01:57.316Z,0.00
2024-02-28T00:06:57.255Z,0.00
2024-02-28T00:11:57.205Z,0.00
2024-02-28T00:16:57.092Z,0.00
2024-02-28T00:21:57.080Z,0.00
2024-02-28T00:26:56.984Z,0.00
2024-02-28T00:31:56.924Z,0.00
2024-02-28T00:36:57.124Z,0.00
2024-02-28T00:41:56.790Z,0.00
2024-02-28T00:46:56.790Z,0.00
2024-02-28T00:51:56.775Z,0.00
2024-02-28T00:56:56.570Z,0.00
2024-02-28T01:01:56.538Z,0.00
2024-02-28T01:06:56.500Z,0.00
2024-02-28T01:11:56.435Z,0.00
2024-02-28T01:16:56.418Z,0.00
2024-02-28T01:21:56.341Z,0.00
2024-02-28T01:26:56.243Z,0.00
2024-02-28T01:31:56.142Z,0.00
2024-02-28T01:36:56.198Z,0.00
2024-02-28T01:41:56.023Z,0.00
2024-02-28T01:46:56.051Z,0.00
2024-02-28T01:51:56.026Z,0.00
2024-02-28T01:56:55.798Z,0.00
2024-02-28T02:01:55.761Z,0.00
2024-02-28T02:06:55.836Z,0.00
2024-02-28T02:11:55.624Z,0.00
2024-02-28T02:16:55.578Z,0.00
2024-02-28T02:21:55.578Z,0.00
2024-02-28T02:26:55.461Z,0.00
2024-02-28T02:31:55.358Z,0.00
2024-02-28T02:36:55.319Z,0.00
2024-02-28T02:41:55.378Z,0.00
2024-02-28T02:46:55.162Z,0.00
2024-02-28T02:51:55.128Z,0.00
2024-02-28T02:56:55.008Z,0.00
2024-02-28T03:01:55.072Z,0.00
2024-02-28T03:06:54.921Z,0.00
2024-02-28T03:11:54.848Z,0.00
2024-02-28T03:16:54.788Z,0.00
2024-02-28T03:21:54.826Z,0.00
2024-02-28T03:26:54.634Z,0.00
2024-02-28T03:31:54.583Z,0.00
2024-02-28T03:36:54.641Z,0.00
2024-02-28T03:41:54.478Z,0.00
2024-02-28T03:46:54.351Z,0.00
2024-02-28T03:51:54.382Z,0.00
2024-02-28T03:56:54.249Z,0.00
2024-02-28T04:01:54.177Z,0.00
2024-02-28T04:06:54.178Z,0.00
2024-02-28T04:11:54.089Z,0.00
2024-02-28T04:16:54.035Z,0.00
2024-02-28T04:21:53.986Z,0.00
2024-02-28T04:26:53.794Z,0.00
2024-02-28T04:31:53.799Z,0.00
2024-02-28T04:36:53.921Z,0.00
2024-02-28T04:41:53.651Z,0.00
2024-02-28T04:46:53.586Z,0.00
2024-02-28T04:51:53.599Z,0.00
2024-02-28T04:56:53.487Z,0.00
2024-02-28T05:01:53.479Z,0.00
2024-02-28T05:06:53.365Z,0.00
2024-02-28T05:11:53.350Z,0.00
2024-02-28T05:16:53.245Z,0.00
2024-02-28T05:21:53.182Z,0.00
2024-02-28T05:26:53.054Z,0.00
2024-02-28T05:31:53.079Z,0.00
2024-02-28T05:36:52.965Z,0.00
2024-02-28T05:41:52.872Z,4.00
2024-02-28T05:46:52.783Z,8.00
2024-02-28T05:51:52.829Z,12.00
2024-02-28T05:56:52.697Z,20.00
2024-02-28T06:01:52.647Z,32.00
2024-02-28T06:06:52.579Z,44.00
2024-02-28T06:11:52.510Z,100.00
2024-02-28T06:16:52.411Z,116.00
2024-02-28T06:21:52.662Z,140.00
2024-02-28T06:26:52.274Z,196.00
2024-02-28T06:31:52.209Z,304.00
2024-02-28T06:36:52.243Z,352.00
2024-02-28T06:41:52.205Z,308.00
2024-02-28T06:46:51.996Z,332.00
2024-02-28T06:51:51.980Z,384.00
2024-02-28T06:56:51.847Z,456.00
2024-02-28T07:01:51.972Z,368.00
2024-02-28T07:06:51.927Z,436.00
2024-02-28T07:11:51.690Z,460.00
2024-02-28T07:16:51.605Z,400.00
2024-02-28T07:21:51.598Z,712.00
2024-02-28T07:26:51.469Z,1120.00
2024-02-28T07:31:51.413Z,1212.00
2024-02-28T07:36:51.424Z,1428.00
2024-02-28T07:41:53.214Z,1032.00
2024-02-28T07:46:51.249Z,1308.00
2024-02-28T07:51:51.505Z,1212.00
2024-02-28T07:56:51.066Z,832.00
2024-02-28T08:01:51.084Z,808.00
2024-02-28T08:06:50.984Z,752.00
2024-02-28T08:11:50.878Z,780.00
2024-02-28T08:16:50.802Z,696.00
2024-02-28T08:21:50.799Z,748.00
2024-02-28T08:26:50.673Z,744.00
2024-02-28T08:31:50.627Z,876.00
2024-02-28T08:36:50.570Z,780.00
2024-02-28T08:41:50.529Z,1024.00
2024-02-28T08:46:50.438Z,992.00
2024-02-28T08:51:50.584Z,764.00
2024-02-28T08:56:56.585Z,1628.00
2024-02-28T09:01:51.323Z,1756.00
2024-02-28T09:06:50.246Z,1856.00
2024-02-28T09:11:50.453Z,2944.00
2024-02-28T09:16:50.056Z,4216.00
2024-02-28T09:21:50.034Z,3752.00
2024-02-28T09:26:49.891Z,1984.00
2024-02-28T09:31:49.862Z,2136.00
2024-02-28T09:36:51.274Z,2028.00
2024-02-28T09:41:49.755Z,2384.00
2024-02-28T09:46:49.604Z,2624.00
2024-02-28T09:51:49.587Z,2500.00
2024-02-28T09:56:49.513Z,2256.00
2024-02-28T10:01:49.466Z,2420.00
2024-02-28T10:06:49.385Z,2444.00
2024-02-28T10:11:49.336Z,2336.00
2024-02-28T10:16:49.218Z,2376.00
2024-02-28T10:21:49.204Z,2484.00
2024-02-28T10:26:49.133Z,2248.00
2024-02-28T10:31:49.047Z,2660.00
2024-02-28T10:36:49.113Z,3020.00
2024-02-28T10:41:48.909Z,2264.00
2024-02-28T10:46:48.931Z,2044.00
2024-02-28T10:51:48.845Z,1812.00
2024-02-28T10:56:48.743Z,2112.00
2024-02-28T11:01:48.750Z,2160.00
2024-02-28T11:06:48.573Z,2540.00
2024-02-28T11:11:48.529Z,2932.00
2024-02-28T11:16:48.485Z,3632.00
2024-02-28T11:21:48.410Z,4312.00
2024-02-28T11:26:50.097Z,5068.00
2024-02-28T11:31:48.237Z,4960.00
2024-02-28T11:36:48.332Z,6296.00
2024-02-28T11:41:48.129Z,6004.00
2024-02-28T11:46:48.079Z,6324.00
2024-02-28T11:51:48.267Z,5292.00
2024-02-28T11:56:48.017Z,3240.00
2024-02-28T12:01:48.144Z,3084.00
2024-02-28T12:06:47.922Z,2976.00
2024-02-28T12:11:47.690Z,3408.00
2024-02-28T12:16:47.677Z,5576.00
2024-02-28T12:21:47.600Z,3752.00
2024-02-28T12:26:47.529Z,4428.00
2024-02-28T12:31:47.470Z,4736.00
2024-02-28T12:36:47.789Z,5036.00
2024-02-28T12:41:47.321Z,4656.00
2024-02-28T12:46:47.270Z,4368.00
2024-02-28T12:51:47.369Z,4100.00
2024-02-28T12:56:47.165Z,3744.00
2024-02-28T13:01:47.211Z,4064.00
2024-02-28T13:06:47.070Z,4816.00
2024-02-28T13:11:46.989Z,5072.00
2024-02-28T13:16:46.930Z,4892.00
2024-02-28T13:21:46.848Z,4668.00
2024-02-28T13:26:46.736Z,4560.00
2024-02-28T13:31:46.701Z,4844.00
2024-02-28T13:36:46.722Z,4856.00
2024-02-28T13:41:46.546Z,5036.00
2024-02-28T13:46:46.606Z,4964.00
2024-02-28T13:51:48.522Z,5148.00
2024-02-28T13:56:46.372Z,5292.00
2024-02-28T14:01:46.497Z,5328.00
2024-02-28T14:06:46.303Z,5632.00
2024-02-28T14:11:46.161Z,4952.00
2024-02-28T14:16:46.177Z,4844.00
2024-02-28T14:21:46.117Z,4756.00
2024-02-28T14:26:45.966Z,4692.00
2024-02-28T14:31:45.899Z,4504.00
2024-02-28T14:36:45.867Z,4288.00
2024-02-28T14:41:45.769Z,4240.00
2024-02-28T14:46:45.732Z,4072.00
2024-02-28T14:51:45.618Z,3848.00
2024-02-28T14:56:45.574Z,3620.00
2024-02-28T15:01:45.558Z,3404.00
2024-02-28T15:06:45.515Z,3416.00
2024-02-28T15:11:45.342Z,3192.00
2024-02-28T15:16:45.323Z,3064.00
2024-02-28T15:21:45.281Z,2936.00
2024-02-28T15:26:47.068Z,2828.00
2024-02-28T15:31:45.107Z,2632.00
2024-02-28T15:36:45.052Z,2500.00
2024-02-28T15:41:44.941Z,2300.00
2024-02-28T15:46:44.944Z,2168.00
2024-02-28T15:51:44.838Z,2000.00
2024-02-28T15:56:44.730Z,1820.00
2024-02-28T16:01:44.685Z,1636.00
2024-02-28T16:06:44.657Z,1444.00
2024-02-28T16:11:44.580Z,1244.00
2024-02-28T16:16:44.508Z,1028.00
2024-02-28T16:21:44.503Z,832.00
2024-02-28T16:26:44.398Z,624.00
2024-02-28T16:31:44.308Z,432.00
2024-02-28T16:36:44.272Z,272.00
2024-02-28T16:41:44.178Z,160.00
2024-02-28T16:46:44.145Z,88.00
2024-02-28T16:51:44.080Z,40.00
2024-02-28T16:56:43.998Z,20.00
2024-02-28T17:01:44.023Z,8.00
2024-02-28T17:06:43.957Z,4.00
2024-02-28T17:11:43.817Z,0.00
2024-02-28T17:16:43.734Z,0.00
2024-02-28T17:21:43.761Z,0.00
2024-02-28T17:26:43.599Z,0.00
2024-02-28T17:31:43.516Z,0.00
2024-02-28T17:36:43.514Z,0.00
2024-02-28T17:41:43.452Z,0.00
2024-02-28T17:46:43.349Z,0.00
2024-02-28T17:51:43.306Z,0.00
2024-02-28T17:56:43.290Z,0.00
2024-02-28T18:01:43.279Z,0.00
2024-02-28T18:06:43.103Z,0.00
2024-02-28T18:11:43.097Z,0.00
2024-02-28T18:16:42.960Z,0.00
2024-02-28T18:21:42.918Z,0.00
2024-02-28T18:26:42.802Z,0.00
2024-02-28T18:31:42.739Z,0.00
2024-02-28T18:36:42.746Z,0.00
2024-02-28T18:41:42.650Z,0.00
2024-02-28T18:46:42.554Z,0.00
2024-02-28T18:51:42.566Z,0.00
2024-02-28T18:56:42.457Z,0.00
2024-02-28T19:01:42.559Z,0.00
2024-02-28T19:06:42.332Z,0.00
2024-02-28T19:11:42.224Z,0.00
2024-02-28T19:16:42.158Z,0.00
2024-02-28T19:21:42.140Z,0.00
2024-02-28T19:26:42.055Z,0.00
2024-02-28T19:31:41.978Z,0.00
2024-02-28T19:36:41.947Z,0.00
2024-02-28T19:41:41.855Z,0.00
2024-02-28T19:46:41.759Z,0.00
2024-02-28T19:51:41.737Z,0.00
2024-02-28T19:56:41.674Z,0.00
2024-02-28T20:01:41.736Z,0.00
2024-02-28T20:06:41.607Z,0.00
2024-02-28T20:11:41.474Z,0.00
2024-02-28T20:16:41.552Z,0.00
2024-02-28T20:21:41.374Z,0.00
2024-02-28T20:26:41.265Z,0.00
2024-02-28T20:31:41.207Z,0.00
2024-02-28T20:36:41.211Z,0.00
2024-02-28T20:41:41.070Z,0.00
2024-02-28T20:46:41.001Z,0.00
2024-02-28T20:51:41.033Z,0.00
2024-02-28T20:56:40.865Z,0.00
2024-02-28T21:01:41.031Z,0.00
2024-02-28T21:06:40.764Z,0.00
2024-02-28T21:11:40.768Z,0.00
2024-02-28T21:16:40.621Z,0.00
2024-02-28T21:21:40.612Z,0.00
2024-02-28T21:26:40.502Z,0.00
2024-02-28T21:31:40.445Z,0.00
2024-02-28T21:36:40.435Z,0.00
2024-02-28T21:41:40.337Z,0.00
2024-02-28T21:46:40.228Z,0.00
2024-02-28T21:51:40.275Z,0.00
2024-02-28T21:56:40.113Z,0.00
2024-02-28T22:01:40.139Z,0.00
2024-02-28T22:06:40.050Z,0.00
2024-02-28T22:11:39.941Z,0.00
2024-02-28T22:16:39.852Z,0.00
2024-02-28T22:21:39.858Z,0.00
2024-02-28T22:26:39.778Z,0.00
2024-02-28T22:31:39.678Z,0.00
2024-02-28T22:36:39.628Z,0.00
2024-02-28T22:41:39.523Z,0.00
2024-02-28T22:46:39.556Z,0.00
2024-02-28T22:51:39.482Z,0.00
2024-02-28T22:56:39.315Z,0.00
2024-02-28T23:01:39.384Z,0.00
2024-02-28T23:06:39.273Z,0.00
2024-02-28T23:11:39.131Z,0.00
2024-02-28T23:16:39.059Z,0.00
2024-02-28T23:21:39.271Z,0.00
2024-02-28T23:26:38.959Z,0.00
2024-02-28T23:31:38.909Z,0.00
2024-02-28T23:36:38.894Z,0.00
2024-02-28T23:41:38.747Z,0.00
2024-02-28T23:46:38.750Z,0.00
2024-02-28T23:51:38.742Z,0.00
2024-02-28T23:56:38.625Z,0.00
